createdAt,value
2022-12-11T00:00:47.434Z,21.37
2022-12-11T00:03:16.515Z,22.70
2022-12-11T00:05:43.981Z,22.03
2022-12-11T00:08:10.770Z,21.47
2022-12-11T00:10:37.939Z,20.43
2022-12-11T00:13:05.258Z,19.83
2022-12-11T00:15:31.586Z,20.83
2022-12-11T00:17:57.984Z,19.10
2022-12-11T00:20:24.716Z,19.27
2022-12-11T00:22:51.187Z,19.80
2022-12-11T00:25:17.741Z,19.33
2022-12-11T00:27:45.923Z,19.77
2022-12-11T00:30:12.927Z,20.67
2022-12-11T00:32:39.329Z,18.17
2022-12-11T00:35:06.073Z,19.90
2022-12-11T00:37:32.579Z,17.90
2022-12-11T00:39:58.998Z,18.20
2022-12-11T00:42:25.435Z,17.03
2022-12-11T00:44:52.100Z,18.50
2022-12-11T00:47:18.458Z,18.70
2022-12-11T00:49:49.555Z,18.00
2022-12-11T00:52:17.656Z,18.10
2022-12-11T00:54:44.138Z,16.13
2022-12-11T00:57:10.557Z,17.57
2022-12-11T00:59:37.035Z,16.40
2022-12-11T01:02:03.544Z,17.57
2022-12-11T01:04:30.072Z,20.13
2022-12-11T01:06:56.453Z,17.80
2022-12-11T01:09:41.609Z,17.40
2022-12-11T01:12:08.029Z,17.07
2022-12-11T01:14:34.498Z,18.73
2022-12-11T01:17:00.926Z,17.50
2022-12-11T01:19:27.323Z,17.83
2022-12-11T01:21:53.956Z,17.90
2022-12-11T01:24:20.505Z,17.73
2022-12-11T01:26:46.879Z,18.13
2022-12-11T01:29:13.275Z,17.57
2022-12-11T01:31:39.665Z,16.40
2022-12-11T01:34:06.170Z,17.83
2022-12-11T01:36:32.760Z,17.47
2022-12-11T01:38:59.193Z,18.80
2022-12-11T01:41:25.674Z,17.93
2022-12-11T01:44:08.426Z,17.27
2022-12-11T01:46:36.285Z,17.37
2022-12-11T01:49:07.521Z,15.80
2022-12-11T01:51:40.872Z,15.93
2022-12-11T01:54:11.345Z,17.10
2022-12-11T01:56:39.746Z,18.07
2022-12-11T01:59:09.370Z,16.80
2022-12-11T02:01:54.983Z,18.70
2022-12-11T02:04:21.436Z,16.50
2022-12-11T02:06:50.529Z,16.30
2022-12-11T02:09:35.008Z,17.80
2022-12-11T02:12:04.253Z,18.10
2022-12-11T02:14:49.370Z,16.70
2022-12-11T02:17:25.080Z,17.30
2022-12-11T02:20:07.090Z,18.37
2022-12-11T02:22:51.653Z,17.17
2022-12-11T02:25:46.730Z,15.57
2022-12-11T02:28:37.053Z,16.27
2022-12-11T02:31:27.549Z,16.50
2022-12-11T02:34:12.016Z,16.27
2022-12-11T02:36:43.430Z,16.90
2022-12-11T02:39:12.969Z,17.10
2022-12-11T02:41:44.395Z,17.83
2022-12-11T02:44:13.001Z,17.30
2022-12-11T02:46:40.209Z,17.63
2022-12-11T02:49:08.746Z,17.10
2022-12-11T02:51:39.565Z,18.10
2022-12-11T02:54:10.205Z,17.67
2022-12-11T02:56:41.789Z,18.40
2022-12-11T02:59:15.477Z,18.10
2022-12-11T03:01:43.012Z,18.47
2022-12-11T03:04:09.771Z,17.03
2022-12-11T03:06:41.464Z,16.13
2022-12-11T03:09:08.545Z,19.03
2022-12-11T03:11:34.877Z,18.20
2022-12-11T03:14:02.797Z,17.20
2022-12-11T03:16:33.777Z,17.10
2022-12-11T03:19:21.654Z,18.00
2022-12-11T03:22:00.409Z,17.40
2022-12-11T03:24:34.402Z,17.30
2022-12-11T03:27:25.981Z,17.87
2022-12-11T03:29:57.911Z,16.27
2022-12-11T03:32:29.730Z,15.33
2022-12-11T03:35:12.266Z,17.47
2022-12-11T03:37:42.186Z,17.80
2022-12-11T03:40:14.366Z,18.30
2022-12-11T03:42:44.917Z,17.57
2022-12-11T03:45:13.674Z,17.80
2022-12-11T03:47:42.348Z,18.80
2022-12-11T03:50:11.044Z,16.57
2022-12-11T03:52:45.720Z,17.30
2022-12-11T03:55:15.831Z,15.67
2022-12-11T03:57:42.481Z,16.87
2022-12-11T04:00:12.473Z,15.63
2022-12-11T04:02:39.466Z,17.40
2022-12-11T04:05:06.422Z,17.43
2022-12-11T04:07:32.833Z,16.40
2022-12-11T04:10:00.238Z,15.23
2022-12-11T04:12:26.618Z,17.17
2022-12-11T04:15:02.123Z,16.00
2022-12-11T04:17:53.438Z,13.70
2022-12-11T04:20:39.881Z,16.67
2022-12-11T04:23:29.851Z,16.40
2022-12-11T04:26:07.682Z,14.80
2022-12-11T04:28:34.341Z,16.07
2022-12-11T04:31:00.988Z,16.70
2022-12-11T04:33:27.815Z,17.07
2022-12-11T04:35:54.339Z,15.43
2022-12-11T04:38:20.669Z,16.20
2022-12-11T04:40:47.037Z,15.63
2022-12-11T04:43:13.375Z,15.53
2022-12-11T04:45:39.733Z,17.20
2022-12-11T04:48:06.265Z,16.77
2022-12-11T04:50:32.589Z,14.50
2022-12-11T04:52:58.961Z,16.67
2022-12-11T04:55:25.366Z,16.53
2022-12-11T04:57:51.682Z,16.00
2022-12-11T05:00:18.079Z,15.33
2022-12-11T05:02:44.526Z,14.63
2022-12-11T05:05:11.866Z,16.10
2022-12-11T05:07:39.771Z,16.40
2022-12-11T05:10:06.790Z,17.10
2022-12-11T05:12:33.368Z,16.90
2022-12-11T05:14:59.718Z,15.30
2022-12-11T05:17:26.101Z,15.23
2022-12-11T05:19:52.418Z,15.60
2022-12-11T05:22:19.194Z,14.93
2022-12-11T05:24:45.995Z,14.33
2022-12-11T05:27:12.501Z,15.97
2022-12-11T05:29:38.847Z,15.83
2022-12-11T05:32:05.490Z,15.07
2022-12-11T05:34:32.797Z,15.00
2022-12-11T05:36:59.107Z,14.37
2022-12-11T05:39:25.461Z,16.07
2022-12-11T05:41:51.792Z,17.03
2022-12-11T05:44:18.135Z,17.10
2022-12-11T05:46:44.494Z,16.10
2022-12-11T05:49:11.152Z,16.03
2022-12-11T05:51:39.485Z,16.80
2022-12-11T05:54:05.827Z,17.13
2022-12-11T05:56:34.600Z,18.53
2022-12-11T05:59:03.056Z,15.80
2022-12-11T06:01:40.143Z,17.13
2022-12-11T06:04:08.461Z,17.43
2022-12-11T06:06:35.974Z,15.27
2022-12-11T06:09:03.871Z,17.80
2022-12-11T06:11:32.045Z,16.83
2022-12-11T06:13:58.873Z,17.00
2022-12-11T06:16:25.589Z,17.80
2022-12-11T06:18:54.657Z,16.90
2022-12-11T06:21:29.882Z,17.43
2022-12-11T06:23:58.820Z,17.40
2022-12-11T06:26:26.078Z,16.43
2022-12-11T06:28:52.887Z,18.97
2022-12-11T06:31:19.682Z,17.70
2022-12-11T06:33:47.297Z,19.27
2022-12-11T06:36:16.316Z,16.80
2022-12-11T06:38:43.407Z,17.97
2022-12-11T06:41:10.244Z,19.10
2022-12-11T06:43:38.660Z,18.90
2022-12-11T06:46:06.918Z,19.43
2022-12-11T06:48:36.089Z,20.10
2022-12-11T06:51:06.901Z,19.10
2022-12-11T06:53:33.704Z,17.90
2022-12-11T06:56:05.291Z,18.13
2022-12-11T06:58:33.501Z,18.50
2022-12-11T07:00:59.978Z,18.83
2022-12-11T07:03:26.349Z,19.03
2022-12-11T07:05:52.666Z,18.17
2022-12-11T07:08:19.131Z,17.17
2022-12-11T07:10:45.502Z,17.80
2022-12-11T07:13:11.830Z,17.57
2022-12-11T07:15:40.520Z,17.10
2022-12-11T07:18:07.030Z,17.43
2022-12-11T07:20:33.343Z,17.17
2022-12-11T07:23:00.307Z,17.60
2022-12-11T07:25:26.687Z,19.00
2022-12-11T07:27:53.190Z,17.00
2022-12-11T07:30:19.561Z,17.30
2022-12-11T07:32:45.966Z,18.10
2022-12-11T07:35:12.610Z,18.83
2022-12-11T07:37:41.389Z,20.47
2022-12-11T07:40:08.481Z,18.80
2022-12-11T07:42:34.804Z,19.23
2022-12-11T07:45:01.116Z,19.27
2022-12-11T07:47:27.422Z,17.90
2022-12-11T07:49:56.805Z,16.80
2022-12-11T07:52:23.114Z,16.97
2022-12-11T07:54:49.818Z,16.00
2022-12-11T07:57:16.353Z,16.00
2022-12-11T07:59:42.715Z,16.93
2022-12-11T08:02:11.758Z,17.60
2022-12-11T08:04:38.633Z,18.63
2022-12-11T08:07:04.997Z,16.50
2022-12-11T08:09:31.448Z,16.10
2022-12-11T08:11:57.820Z,15.83
2022-12-11T08:14:24.147Z,16.93
2022-12-11T08:16:50.553Z,15.97
2022-12-11T08:19:17.852Z,16.20
2022-12-11T08:21:44.224Z,17.70
2022-12-11T08:26:37.653Z,15.53
2022-12-11T08:29:04.260Z,17.80
2022-12-11T08:31:30.744Z,15.37
2022-12-11T08:33:57.534Z,17.53
2022-12-11T08:36:25.162Z,16.40
2022-12-11T08:38:53.606Z,16.83
2022-12-11T08:41:26.593Z,16.73
2022-12-11T08:43:54.860Z,16.50
2022-12-11T08:46:23.859Z,15.67
2022-12-11T08:48:50.559Z,16.87
2022-12-11T08:51:20.653Z,16.07
2022-12-11T08:53:46.989Z,17.67
2022-12-11T08:56:16.401Z,17.23
2022-12-11T08:58:44.070Z,16.63
2022-12-11T09:01:12.468Z,15.73
2022-12-11T09:03:39.907Z,17.57
2022-12-11T09:06:11.973Z,19.90
2022-12-11T09:08:38.771Z,20.23
2022-12-11T09:11:11.183Z,18.33
2022-12-11T09:13:39.276Z,14.40
2022-12-11T09:16:09.797Z,15.90
2022-12-11T09:18:37.358Z,16.90
2022-12-11T09:21:06.846Z,16.40
2022-12-11T09:23:33.380Z,17.40
2022-12-11T09:26:00.316Z,17.83
2022-12-11T09:28:26.643Z,17.37
2022-12-11T09:30:53.024Z,15.70
2022-12-11T09:33:19.531Z,16.87
2022-12-11T09:35:46.161Z,16.43
2022-12-11T09:38:12.484Z,17.70
2022-12-11T09:40:43.190Z,16.70
2022-12-11T09:46:09.618Z,15.40
2022-12-11T09:48:38.187Z,15.47
2022-12-11T09:51:20.275Z,16.90
2022-12-11T09:53:50.116Z,17.50
2022-12-11T09:56:18.163Z,15.33
2022-12-11T09:58:53.566Z,15.43
2022-12-11T10:01:34.559Z,15.53
2022-12-11T10:04:16.113Z,15.63
2022-12-11T10:07:15.893Z,16.17
2022-12-11T10:09:56.566Z,14.93
2022-12-11T10:12:47.672Z,17.17
2022-12-11T10:15:46.022Z,16.83
2022-12-11T10:18:21.239Z,16.03
2022-12-11T10:20:49.830Z,15.10
2022-12-11T10:23:22.542Z,16.37
2022-12-11T10:26:14.205Z,16.47
2022-12-11T10:28:40.582Z,15.47
2022-12-11T10:31:19.139Z,15.97
2022-12-11T10:33:59.236Z,15.17
2022-12-11T10:36:40.960Z,16.33
2022-12-11T10:39:19.356Z,14.97
2022-12-11T10:41:54.114Z,16.20
2022-12-11T10:44:31.075Z,15.60
2022-12-11T10:47:15.413Z,16.70
2022-12-11T10:49:58.178Z,15.77
2022-12-11T10:52:31.512Z,16.77
2022-12-11T10:55:17.281Z,14.20
2022-12-11T10:57:43.962Z,16.50
2022-12-11T11:00:30.614Z,14.40
2022-12-11T11:02:58.151Z,15.77
2022-12-11T11:05:34.685Z,16.03
2022-12-11T11:08:24.884Z,13.43
2022-12-11T11:10:57.393Z,14.70
2022-12-11T11:13:25.877Z,15.60
2022-12-11T11:16:05.545Z,14.53
2022-12-11T11:18:33.517Z,15.13
2022-12-11T11:21:01.558Z,15.60
2022-12-11T11:23:28.599Z,14.30
2022-12-11T11:26:02.473Z,14.80
2022-12-11T11:28:57.602Z,14.50
2022-12-11T11:31:34.115Z,15.93
2022-12-11T11:34:07.775Z,15.83
2022-12-11T11:36:36.228Z,15.37
2022-12-11T11:39:02.508Z,14.23
2022-12-11T11:41:31.531Z,14.00
2022-12-11T11:44:00.539Z,14.60
2022-12-11T11:46:33.324Z,14.23
2022-12-11T11:49:18.422Z,16.40
2022-12-11T11:51:51.315Z,16.30
2022-12-11T11:54:30.302Z,16.40
2022-12-11T11:56:57.675Z,14.90
2022-12-11T11:59:36.259Z,15.50
2022-12-11T12:02:02.918Z,13.87
2022-12-11T12:04:34.980Z,14.80
2022-12-11T12:07:23.919Z,15.97
2022-12-11T12:10:12.275Z,14.07
2022-12-11T12:13:14.344Z,14.17
2022-12-11T12:15:54.251Z,15.87
2022-12-11T12:18:58.086Z,15.23
2022-12-11T12:21:35.269Z,15.50
2022-12-11T12:24:20.476Z,14.23
2022-12-11T12:26:55.758Z,14.00
2022-12-11T12:29:40.684Z,13.80
2022-12-11T12:32:31.556Z,13.03
2022-12-11T12:35:16.711Z,14.60
2022-12-11T12:38:20.859Z,16.77
2022-12-11T12:41:04.649Z,16.63
2022-12-11T12:43:53.402Z,15.40
2022-12-11T12:46:36.768Z,15.70
2022-12-11T12:49:04.820Z,15.63
2022-12-11T12:51:31.881Z,14.30
2022-12-11T12:54:06.558Z,15.37
2022-12-11T12:56:38.294Z,15.50
2022-12-11T12:59:04.654Z,13.63
2022-12-11T13:01:31.808Z,14.60
2022-12-11T13:04:07.331Z,12.60
2022-12-11T13:06:41.033Z,16.03
2022-12-11T13:09:18.775Z,12.67
2022-12-11T13:11:47.404Z,13.10
2022-12-11T13:14:13.675Z,12.67
2022-12-11T13:16:42.065Z,12.03
2022-12-11T13:19:23.720Z,12.17
2022-12-11T13:22:17.445Z,12.30
2022-12-11T13:24:47.794Z,12.97
2022-12-11T13:27:26.318Z,13.77
2022-12-11T13:30:08.468Z,11.80
2022-12-11T13:32:35.018Z,11.90
2022-12-11T13:35:06.829Z,12.50
2022-12-11T13:37:41.073Z,13.73
2022-12-11T13:40:17.258Z,12.63
2022-12-11T13:42:57.167Z,12.40
2022-12-11T13:45:28.960Z,12.93
2022-12-11T13:47:59.353Z,12.83
2022-12-11T13:50:30.913Z,12.27
2022-12-11T13:52:59.284Z,12.50
2022-12-11T13:55:29.978Z,14.80
2022-12-11T13:57:57.230Z,14.30
2022-12-11T14:00:26.797Z,13.97
2022-12-11T14:02:55.965Z,13.77
2022-12-11T14:05:22.772Z,13.20
2022-12-11T14:07:52.047Z,15.67
2022-12-11T14:10:22.857Z,14.33
2022-12-11T14:13:27.090Z,14.07
2022-12-11T14:15:54.370Z,14.83
2022-12-11T14:18:27.539Z,14.33
2022-12-11T14:21:05.188Z,14.37
2022-12-11T14:23:37.220Z,14.47
2022-12-11T14:26:15.484Z,14.13
2022-12-11T14:28:43.313Z,15.47
2022-12-11T14:31:15.724Z,14.53
2022-12-11T14:33:46.158Z,14.50
2022-12-11T14:36:15.381Z,15.40
2022-12-11T14:38:49.282Z,14.27
2022-12-11T14:41:21.861Z,14.97
2022-12-11T14:43:53.262Z,13.90
2022-12-11T14:46:38.429Z,15.43
2022-12-11T14:49:16.998Z,14.47
2022-12-11T14:51:44.480Z,16.40
2022-12-11T14:54:27.534Z,14.73
2022-12-11T14:56:54.508Z,15.33
2022-12-11T14:59:31.637Z,15.20
2022-12-11T15:02:00.887Z,16.10
2022-12-11T15:04:32.343Z,14.97
2022-12-11T15:06:59.697Z,15.10
2022-12-11T15:09:29.583Z,17.40
2022-12-11T15:12:07.497Z,15.70
2022-12-11T15:14:34.327Z,16.13
2022-12-11T15:17:00.742Z,16.80
2022-12-11T15:19:31.414Z,14.77
2022-12-11T15:22:05.662Z,16.50
2022-12-11T15:24:41.735Z,15.40
2022-12-11T15:27:26.405Z,16.60
2022-12-11T15:29:54.002Z,15.87
2022-12-11T15:32:21.676Z,15.83
2022-12-11T15:34:59.598Z,15.03
2022-12-11T15:37:32.602Z,16.40
2022-12-11T15:40:01.282Z,16.13
2022-12-11T15:42:39.971Z,15.93
2022-12-11T15:45:08.751Z,15.13
2022-12-11T15:47:35.142Z,16.60
2022-12-11T15:50:21.297Z,16.17
2022-12-11T15:52:48.540Z,17.20
2022-12-11T15:55:15.115Z,16.10
2022-12-11T15:57:46.600Z,15.27
2022-12-11T16:00:18.705Z,16.20
2022-12-11T16:02:45.754Z,15.53
2022-12-11T16:05:12.859Z,16.57
2022-12-11T16:07:39.557Z,17.50
2022-12-11T16:10:07.426Z,19.77
2022-12-11T16:12:33.873Z,18.00
2022-12-11T16:15:00.326Z,16.70
2022-12-11T16:17:26.759Z,17.13
2022-12-11T16:19:54.032Z,15.53
2022-12-11T16:22:23.525Z,16.33
2022-12-11T16:24:54.530Z,16.20
2022-12-11T16:27:23.358Z,16.87
2022-12-11T16:29:51.058Z,16.40
2022-12-11T16:32:17.599Z,16.90
2022-12-11T16:34:44.028Z,18.40
2022-12-11T16:37:11.363Z,17.27
2022-12-11T16:39:38.382Z,17.30
2022-12-11T16:42:05.950Z,17.60
2022-12-11T16:44:32.754Z,16.60
2022-12-11T16:46:59.097Z,17.60
2022-12-11T16:49:25.449Z,17.27
2022-12-11T16:51:51.788Z,16.77
2022-12-11T16:54:24.417Z,17.77
2022-12-11T16:56:55.839Z,17.10
2022-12-11T16:59:25.221Z,18.60
2022-12-11T17:01:51.625Z,20.80
2022-12-11T17:04:22.610Z,18.37
2022-12-11T17:06:48.997Z,18.00
2022-12-11T17:09:21.453Z,18.20
2022-12-11T17:11:47.793Z,20.40
2022-12-11T17:14:23.405Z,18.33
2022-12-11T17:16:50.255Z,19.17
2022-12-11T17:19:16.593Z,17.80
2022-12-11T17:21:51.933Z,17.43
2022-12-11T17:24:38.039Z,16.47
2022-12-11T17:27:13.363Z,18.47
2022-12-11T17:29:39.732Z,18.87
2022-12-11T17:32:08.450Z,16.60
2022-12-11T17:34:38.377Z,17.60
2022-12-11T17:37:10.755Z,18.53
2022-12-11T17:39:37.704Z,17.93
2022-12-11T17:42:08.918Z,16.80
2022-12-11T17:44:40.208Z,18.30
2022-12-11T17:47:11.085Z,19.07
2022-12-11T17:49:42.693Z,18.20
2022-12-11T17:52:34.426Z,18.87
2022-12-11T17:54:57.079Z,18.87
2022-12-11T17:57:26.567Z,17.97
2022-12-11T18:00:05.154Z,17.97
2022-12-11T18:02:36.991Z,17.13
2022-12-11T18:05:11.735Z,17.40
2022-12-11T18:07:44.981Z,17.80
2022-12-11T18:10:16.750Z,18.30
2022-12-11T18:12:48.424Z,17.10
2022-12-11T18:15:20.361Z,17.57
2022-12-11T18:17:49.869Z,19.07
2022-12-11T18:20:18.808Z,19.80
2022-12-11T18:22:45.211Z,17.40
2022-12-11T18:25:17.173Z,18.67
2022-12-11T18:27:49.074Z,20.20
2022-12-11T18:30:15.451Z,19.30
2022-12-11T18:32:54.768Z,18.83
2022-12-11T18:35:21.495Z,17.87
2022-12-11T18:37:47.848Z,19.50
2022-12-11T18:40:14.214Z,17.37
2022-12-11T18:42:40.567Z,18.77
2022-12-11T18:45:07.582Z,17.93
2022-12-11T18:47:33.966Z,18.63
2022-12-11T18:50:07.110Z,17.30
2022-12-11T18:52:34.425Z,19.37
2022-12-11T18:55:00.790Z,17.27
2022-12-11T18:57:27.233Z,19.03
2022-12-11T18:59:53.932Z,18.13
2022-12-11T19:02:21.085Z,19.90
2022-12-11T19:04:47.762Z,18.10
2022-12-11T19:07:14.208Z,17.80
2022-12-11T19:09:44.822Z,17.43
2022-12-11T19:12:14.078Z,16.20
2022-12-11T19:14:40.417Z,16.67
2022-12-11T19:17:07.110Z,19.03
2022-12-11T19:19:34.010Z,18.83
2022-12-11T19:22:00.395Z,18.23
2022-12-11T19:24:26.899Z,17.20
2022-12-11T19:26:53.389Z,23.17
2022-12-11T19:29:29.763Z,18.47
2022-12-11T19:31:56.296Z,18.03
2022-12-11T19:34:23.378Z,19.63
2022-12-11T19:36:50.047Z,21.57
2022-12-11T19:39:17.111Z,21.47
2022-12-11T19:41:44.840Z,21.87
2022-12-11T19:44:11.872Z,22.97
2022-12-11T19:46:39.413Z,21.43
2022-12-11T19:49:05.975Z,21.80
2022-12-11T19:51:41.226Z,23.57
2022-12-11T19:54:11.627Z,22.73
2022-12-11T19:56:38.561Z,22.70
2022-12-11T19:59:07.070Z,22.20
2022-12-11T20:01:36.191Z,22.60
2022-12-11T20:04:08.622Z,26.27
2022-12-11T20:06:37.634Z,23.80
2022-12-11T20:09:06.124Z,24.03
2022-12-11T20:11:33.294Z,24.37
2022-12-11T20:14:00.033Z,25.50
2022-12-11T20:16:46.326Z,25.43
2022-12-11T20:19:13.254Z,24.17
2022-12-11T20:21:39.624Z,25.50
2022-12-11T20:24:06.338Z,24.30
2022-12-11T20:26:35.877Z,22.70
2022-12-11T20:29:07.285Z,25.07
2022-12-11T20:31:34.469Z,23.37
2022-12-11T20:34:00.889Z,22.93
2022-12-11T20:36:27.365Z,23.87
2022-12-11T20:38:53.894Z,22.37
2022-12-11T20:41:23.789Z,20.83
2022-12-11T20:43:50.644Z,25.10
2022-12-11T20:46:18.418Z,24.50
2022-12-11T20:48:45.622Z,24.23
2022-12-11T20:51:13.960Z,24.80
2022-12-11T20:53:41.577Z,22.97
2022-12-11T20:56:14.348Z,23.50
2022-12-11T20:58:41.037Z,23.13
2022-12-11T21:01:12.613Z,24.07
2022-12-11T21:03:41.993Z,24.77
2022-12-11T21:06:16.888Z,23.90
2022-12-11T21:08:43.274Z,22.33
2022-12-11T21:11:09.986Z,25.80
2022-12-11T21:13:37.227Z,23.43
2022-12-11T21:16:07.612Z,25.50
2022-12-11T21:18:34.852Z,23.67
2022-12-11T21:21:01.217Z,23.67
2022-12-11T21:23:28.022Z,22.47
2022-12-11T21:25:54.516Z,23.37
2022-12-11T21:28:21.113Z,23.60
2022-12-11T21:30:47.591Z,25.20
2022-12-11T21:33:14.250Z,22.20
2022-12-11T21:35:40.663Z,22.70
2022-12-11T21:38:07.239Z,23.53
2022-12-11T21:40:34.006Z,23.63
2022-12-11T21:43:00.396Z,22.43
2022-12-11T21:45:59.105Z,24.17
2022-12-11T21:48:13.523Z,22.30
2022-12-11T21:50:41.075Z,22.00
2022-12-11T21:53:07.507Z,23.33
2022-12-11T21:55:34.136Z,23.50
2022-12-11T21:58:00.622Z,23.03
2022-12-11T22:00:28.148Z,24.63
2022-12-11T22:02:54.613Z,23.50
2022-12-11T22:05:21.178Z,23.53
2022-12-11T22:07:48.757Z,22.80
2022-12-11T22:10:15.258Z,21.10
2022-12-11T22:12:41.783Z,23.73
2022-12-11T22:15:08.999Z,23.70
2022-12-11T22:17:37.030Z,23.40
2022-12-11T22:20:05.381Z,24.33
2022-12-11T22:22:32.436Z,21.27
2022-12-11T22:24:58.892Z,24.17
2022-12-11T22:27:32.537Z,23.07
2022-12-11T22:29:58.955Z,20.77
2022-12-11T22:32:25.329Z,25.37
2022-12-11T22:34:51.767Z,21.90
2022-12-11T22:37:21.243Z,23.27
2022-12-11T22:39:47.599Z,22.33
2022-12-11T22:42:15.924Z,23.90
2022-12-11T22:44:42.331Z,27.00
2022-12-11T22:47:08.703Z,23.50
2022-12-11T22:49:36.270Z,23.20
2022-12-11T22:52:08.374Z,22.53
2022-12-11T22:54:34.705Z,22.80
2022-12-11T22:57:05.765Z,23.90
2022-12-11T22:59:35.789Z,22.77
2022-12-11T23:02:05.944Z,22.40
2022-12-11T23:04:35.581Z,24.20
2022-12-11T23:07:01.914Z,26.10
2022-12-11T23:09:28.290Z,23.53
2022-12-11T23:11:55.600Z,24.67
2022-12-11T23:14:24.282Z,24.17
2022-12-11T23:16:53.089Z,24.70
2022-12-11T23:19:25.240Z,24.03
2022-12-11T23:21:52.111Z,24.43
2022-12-11T23:24:21.079Z,24.07
2022-12-11T23:26:47.994Z,23.10
2022-12-11T23:29:14.525Z,22.73
2022-12-11T23:31:40.844Z,25.03
2022-12-11T23:34:07.177Z,24.40
2022-12-11T23:36:33.564Z,24.40
2022-12-11T23:39:05.826Z,24.10
2022-12-11T23:41:35.316Z,25.63
2022-12-11T23:44:01.866Z,23.97
2022-12-11T23:46:28.618Z,25.00
2022-12-11T23:48:59.670Z,24.77
2022-12-11T23:51:26.108Z,25.23
2022-12-11T23:54:03.834Z,24.50
2022-12-11T23:56:30.290Z,23.27
2022-12-11T23:58:57.108Z,23.90
